sensor_id;sensor_type;location;lat;lon;timestamp;pressure;altitude;pressure_sealevel;temperature;humidity
37878;BME280;23715;53.652;8.516;2023-02-02T00:01:07;101463.38;;;6.82;100.00
37878;BME280;23715;53.652;8.516;2023-02-02T00:06:08;101469.23;;;6.89;100.00
37878;BME280;23715;53.652;8.516;2023-02-02T00:11:09;101466.56;;;6.89;100.00
37878;BME280;23715;53.652;8.516;2023-02-02T00:21:30;101488.13;;;6.86;100.00
37878;BME280;23715;53.652;8.516;2023-02-02T00:26:33;101478.17;;;6.81;100.00
37878;BME280;23715;53.652;8.516;2023-02-02T00:31:33;101478.17;;;6.80;100.00
37878;BME280;23715;53.652;8.516;2023-02-02T00:36:36;101498.72;;;6.94;100.00
37878;BME280;23715;53.652;8.516;2023-02-02T00:42:02;101506.46;;;6.92;100.00
37878;BME280;23715;53.652;8.516;2023-02-02T00:52:21;101508.97;;;6.95;100.00
37878;BME280;23715;53.652;8.516;2023-02-02T00:57:22;101531.09;;;6.90;100.00
37878;BME280;23715;53.652;8.516;2023-02-02T01:02:22;101532.95;;;6.66;100.00
37878;BME280;23715;53.652;8.516;2023-02-02T01:07:22;101562.87;;;6.57;100.00
37878;BME280;23715;53.652;8.516;2023-02-02T01:12:23;101558.00;;;6.87;100.00
37878;BME280;23715;53.652;8.516;2023-02-02T01:17:24;101560.89;;;6.68;100.00
37878;BME280;23715;53.652;8.516;2023-02-02T01:22:27;101560.89;;;6.68;100.00
37878;BME280;23715;53.652;8.516;2023-02-02T01:27:27;101574.94;;;6.64;100.00
37878;BME280;23715;53.652;8.516;2023-02-02T01:32:27;101574.19;;;6.99;100.00
37878;BME280;23715;53.652;8.516;2023-02-02T01:37:28;101576.84;;;6.85;100.00
37878;BME280;23715;53.652;8.516;2023-02-02T01:42:28;101590.73;;;6.76;100.00
37878;BME280;23715;53.652;8.516;2023-02-02T01:47:32;101597.39;;;6.37;100.00
37878;BME280;23715;53.652;8.516;2023-02-02T01:52:33;101627.97;;;6.79;100.00
37878;BME280;23715;53.652;8.516;2023-02-02T02:02:57;101615.19;;;6.29;100.00
37878;BME280;23715;53.652;8.516;2023-02-02T02:08:18;101649.16;;;6.18;100.00
37878;BME280;23715;53.652;8.516;2023-02-02T02:13:25;101653.83;;;6.39;100.00
37878;BME280;23715;53.652;8.516;2023-02-02T02:24:15;101672.23;;;6.53;100.00
37878;BME280;23715;53.652;8.516;2023-02-02T02:45:11;101675.91;;;6.10;100.00
37878;BME280;23715;53.652;8.516;2023-02-02T02:50:12;101653.28;;;6.17;100.00
37878;BME280;23715;53.652;8.516;2023-02-02T02:55:12;101656.30;;;6.02;100.00
37878;BME280;23715;53.652;8.516;2023-02-02T03:10:45;101685.04;;;6.05;100.00
37878;BME280;23715;53.652;8.516;2023-02-02T03:15:47;101696.38;;;6.18;100.00
37878;BME280;23715;53.652;8.516;2023-02-02T03:26:14;101735.22;;;5.90;100.00
37878;BME280;23715;53.652;8.516;2023-02-02T03:36:37;101767.64;;;6.26;100.00
37878;BME280;23715;53.652;8.516;2023-02-02T03:41:56;101772.45;;;6.53;100.00
37878;BME280;23715;53.652;8.516;2023-02-02T03:46:57;101778.02;;;6.48;100.00
37878;BME280;23715;53.652;8.516;2023-02-02T03:51:58;101774.22;;;6.61;100.00
37878;BME280;23715;53.652;8.516;2023-02-02T03:57:00;101779.55;;;6.45;100.00
37878;BME280;23715;53.652;8.516;2023-02-02T04:22:48;101825.21;;;6.14;100.00
37878;BME280;23715;53.652;8.516;2023-02-02T04:27:48;101828.27;;;6.24;100.00
37878;BME280;23715;53.652;8.516;2023-02-02T04:32:50;101837.94;;;6.18;100.00
37878;BME280;23715;53.652;8.516;2023-02-02T04:53:18;101828.75;;;6.32;100.00
37878;BME280;23715;53.652;8.516;2023-02-02T04:58:18;101835.88;;;6.32;100.00
37878;BME280;23715;53.652;8.516;2023-02-02T05:03:18;101828.46;;;6.54;100.00
37878;BME280;23715;53.652;8.516;2023-02-02T05:08:19;101824.45;;;6.54;100.00
37878;BME280;23715;53.652;8.516;2023-02-02T05:13:19;101818.00;;;6.08;100.00
37878;BME280;23715;53.652;8.516;2023-02-02T05:18:19;101824.52;;;6.28;100.00
37878;BME280;23715;53.652;8.516;2023-02-02T05:23:19;101831.19;;;6.19;100.00
37878;BME280;23715;53.652;8.516;2023-02-02T05:28:20;101842.67;;;6.63;100.00
37878;BME280;23715;53.652;8.516;2023-02-02T05:33:20;101855.30;;;6.21;100.00
37878;BME280;23715;53.652;8.516;2023-02-02T05:38:21;101855.30;;;6.00;100.00
37878;BME280;23715;53.652;8.516;2023-02-02T05:43:26;101867.57;;;6.13;100.00
37878;BME280;23715;53.652;8.516;2023-02-02T05:48:26;101890.87;;;6.18;100.00
37878;BME280;23715;53.652;8.516;2023-02-02T05:53:31;101900.70;;;6.00;100.00
37878;BME280;23715;53.652;8.516;2023-02-02T05:58:31;101920.90;;;5.87;100.00
37878;BME280;23715;53.652;8.516;2023-02-02T06:03:31;101932.88;;;5.97;100.00
37878;BME280;23715;53.652;8.516;2023-02-02T06:08:32;101936.46;;;6.15;100.00
37878;BME280;23715;53.652;8.516;2023-02-02T06:13:32;101948.19;;;6.30;100.00
37878;BME280;23715;53.652;8.516;2023-02-02T06:18:35;101949.00;;;6.04;100.00
37878;BME280;23715;53.652;8.516;2023-02-02T06:23:35;101954.22;;;6.25;100.00
37878;BME280;23715;53.652;8.516;2023-02-02T06:28:35;101957.84;;;6.33;100.00
37878;BME280;23715;53.652;8.516;2023-02-02T06:33:36;101958.61;;;6.17;100.00
37878;BME280;23715;53.652;8.516;2023-02-02T06:38:37;101958.58;;;6.45;100.00
37878;BME280;23715;53.652;8.516;2023-02-02T06:43:37;101959.25;;;6.31;100.00
37878;BME280;23715;53.652;8.516;2023-02-02T06:48:38;101964.29;;;6.63;100.00
37878;BME280;23715;53.652;8.516;2023-02-02T06:53:38;101972.23;;;6.30;100.00
37878;BME280;23715;53.652;8.516;2023-02-02T06:58:38;101988.50;;;6.34;100.00
37878;BME280;23715;53.652;8.516;2023-02-02T07:03:39;101997.39;;;6.43;100.00
37878;BME280;23715;53.652;8.516;2023-02-02T07:08:40;101997.86;;;6.06;100.00
37878;BME280;23715;53.652;8.516;2023-02-02T07:13:40;102006.80;;;6.24;100.00
37878;BME280;23715;53.652;8.516;2023-02-02T07:18:40;102007.52;;;6.54;100.00
37878;BME280;23715;53.652;8.516;2023-02-02T07:23:42;102015.25;;;6.78;100.00
37878;BME280;23715;53.652;8.516;2023-02-02T07:28:42;102016.41;;;6.46;100.00
37878;BME280;23715;53.652;8.516;2023-02-02T07:33:42;102021.45;;;6.07;100.00
37878;BME280;23715;53.652;8.516;2023-02-02T07:38:45;102036.00;;;6.19;100.00
37878;BME280;23715;53.652;8.516;2023-02-02T07:43:46;102038.88;;;6.42;100.00
37878;BME280;23715;53.652;8.516;2023-02-02T07:48:46;102041.97;;;6.24;100.00
37878;BME280;23715;53.652;8.516;2023-02-02T07:53:47;102047.78;;;6.15;100.00
37878;BME280;23715;53.652;8.516;2023-02-02T07:58:49;102047.48;;;6.75;100.00
37878;BME280;23715;53.652;8.516;2023-02-02T08:03:50;102044.04;;;6.81;100.00
37878;BME280;23715;53.652;8.516;2023-02-02T08:08:53;102042.70;;;6.81;100.00
37878;BME280;23715;53.652;8.516;2023-02-02T08:13:58;102052.38;;;6.39;100.00
37878;BME280;23715;53.652;8.516;2023-02-02T08:18:59;102063.67;;;6.63;100.00
37878;BME280;23715;53.652;8.516;2023-02-02T08:24:00;102075.98;;;7.02;100.00
37878;BME280;23715;53.652;8.516;2023-02-02T08:29:04;102078.48;;;7.05;100.00
37878;BME280;23715;53.652;8.516;2023-02-02T08:34:04;102093.69;;;7.13;100.00
37878;BME280;23715;53.652;8.516;2023-02-02T08:39:07;102093.51;;;7.16;100.00
37878;BME280;23715;53.652;8.516;2023-02-02T08:44:09;102098.61;;;7.03;100.00
37878;BME280;23715;53.652;8.516;2023-02-02T08:49:11;102110.02;;;6.90;100.00
37878;BME280;23715;53.652;8.516;2023-02-02T08:54:11;102123.72;;;7.01;100.00
37878;BME280;23715;53.652;8.516;2023-02-02T08:59:11;102127.67;;;7.29;100.00
37878;BME280;23715;53.652;8.516;2023-02-02T09:04:15;102119.38;;;7.24;100.00
37878;BME280;23715;53.652;8.516;2023-02-02T09:09:16;102121.04;;;7.45;100.00
37878;BME280;23715;53.652;8.516;2023-02-02T09:14:16;102137.92;;;7.71;100.00
37878;BME280;23715;53.652;8.516;2023-02-02T09:19:17;102122.23;;;7.48;100.00
37878;BME280;23715;53.652;8.516;2023-02-02T09:24:17;102125.84;;;7.20;100.00
37878;BME280;23715;53.652;8.516;2023-02-02T09:29:18;102128.91;;;7.39;100.00
37878;BME280;23715;53.652;8.516;2023-02-02T09:34:18;102128.63;;;7.70;100.00
37878;BME280;23715;53.652;8.516;2023-02-02T09:39:18;102126.21;;;7.56;100.00
37878;BME280;23715;53.652;8.516;2023-02-02T09:44:33;102134.16;;;7.49;100.00
37878;BME280;23715;53.652;8.516;2023-02-02T09:54:42;102165.31;;;6.98;100.00
37878;BME280;23715;53.652;8.516;2023-02-02T09:59:43;102163.38;;;7.10;100.00
37878;BME280;23715;53.652;8.516;2023-02-02T10:04:53;102166.52;;;7.01;100.00
37878;BME280;23715;53.652;8.516;2023-02-02T10:10:03;102200.53;;;7.34;100.00
37878;BME280;23715;53.652;8.516;2023-02-02T10:20:29;102203.77;;;7.49;100.00
37878;BME280;23715;53.652;8.516;2023-02-02T10:25:27;102183.63;;;7.59;100.00
37878;BME280;23715;53.652;8.516;2023-02-02T10:30:39;102183.63;;;7.59;100.00
37878;BME280;23715;53.652;8.516;2023-02-02T10:35:38;102178.09;;;7.62;100.00
37878;BME280;23715;53.652;8.516;2023-02-02T10:45:53;102172.17;;;7.73;100.00
37878;BME280;23715;53.652;8.516;2023-02-02T10:50:56;102165.15;;;7.79;100.00
37878;BME280;23715;53.652;8.516;2023-02-02T10:56:04;102167.94;;;7.78;100.00
37878;BME280;23715;53.652;8.516;2023-02-02T11:01:03;102170.54;;;7.71;100.00
37878;BME280;23715;53.652;8.516;2023-02-02T11:06:07;102168.16;;;7.82;100.00
37878;BME280;23715;53.652;8.516;2023-02-02T11:11:30;102170.08;;;8.05;100.00
37878;BME280;23715;53.652;8.516;2023-02-02T11:16:33;102173.84;;;8.34;100.00
37878;BME280;23715;53.652;8.516;2023-02-02T11:21:34;102169.59;;;8.14;100.00
37878;BME280;23715;53.652;8.516;2023-02-02T11:26:55;102176.64;;;7.99;100.00
37878;BME280;23715;53.652;8.516;2023-02-02T11:31:56;102188.20;;;7.99;100.00
37878;BME280;23715;53.652;8.516;2023-02-02T11:37:14;102195.39;;;7.90;100.00
37878;BME280;23715;53.652;8.516;2023-02-02T11:42:21;102195.66;;;8.44;100.00
37878;BME280;23715;53.652;8.516;2023-02-02T11:47:26;102205.98;;;8.67;100.00
37878;BME280;23715;53.652;8.516;2023-02-02T11:52:29;102212.46;;;8.14;100.00
37878;BME280;23715;53.652;8.516;2023-02-02T11:57:30;102221.50;;;8.20;100.00
37878;BME280;23715;53.652;8.516;2023-02-02T12:02:31;102215.85;;;8.09;100.00
37878;BME280;23715;53.652;8.516;2023-02-02T12:07:32;102216.66;;;8.60;100.00
37878;BME280;23715;53.652;8.516;2023-02-02T12:12:38;102212.05;;;8.71;100.00
37878;BME280;23715;53.652;8.516;2023-02-02T12:17:38;102210.33;;;8.45;100.00
37878;BME280;23715;53.652;8.516;2023-02-02T12:22:51;102211.72;;;8.68;100.00
37878;BME280;23715;53.652;8.516;2023-02-02T12:27:54;102204.68;;;8.90;100.00
37878;BME280;23715;53.652;8.516;2023-02-02T12:33:07;102197.66;;;9.04;100.00
37878;BME280;23715;53.652;8.516;2023-02-02T12:43:49;102198.28;;;8.77;100.00
37878;BME280;23715;53.652;8.516;2023-02-02T13:05:06;102160.48;;;8.66;100.00
37878;BME280;23715;53.652;8.516;2023-02-02T13:15:31;102154.96;;;8.92;100.00
37878;BME280;23715;53.652;8.516;2023-02-02T13:30:55;102151.78;;;9.15;100.00
37878;BME280;23715;53.652;8.516;2023-02-02T13:36:13;102165.20;;;8.69;100.00
37878;BME280;23715;53.652;8.516;2023-02-02T13:41:12;102170.98;;;9.01;100.00
37878;BME280;23715;53.652;8.516;2023-02-02T14:02:12;102180.26;;;9.41;100.00
37878;BME280;23715;53.652;8.516;2023-02-02T14:07:08;102170.62;;;9.82;100.00
37878;BME280;23715;53.652;8.516;2023-02-02T14:12:10;102171.00;;;9.31;100.00
37878;BME280;23715;53.652;8.516;2023-02-02T14:22:19;102165.54;;;10.27;100.00
37878;BME280;23715;53.652;8.516;2023-02-02T14:32:40;102160.19;;;10.34;100.00
37878;BME280;23715;53.652;8.516;2023-02-02T14:43:16;102186.48;;;10.01;100.00
37878;BME280;23715;53.652;8.516;2023-02-02T14:48:34;102180.72;;;10.35;100.00
37878;BME280;23715;53.652;8.516;2023-02-02T14:53:38;102184.39;;;10.42;100.00
37878;BME280;23715;53.652;8.516;2023-02-02T15:14:32;102196.05;;;10.69;100.00
37878;BME280;23715;53.652;8.516;2023-02-02T15:19:41;102204.84;;;10.44;100.00
37878;BME280;23715;53.652;8.516;2023-02-02T15:24:44;102210.37;;;10.05;100.00
37878;BME280;23715;53.652;8.516;2023-02-02T15:29:48;102203.18;;;10.27;100.00
37878;BME280;23715;53.652;8.516;2023-02-02T15:34:55;102209.54;;;10.33;100.00
37878;BME280;23715;53.652;8.516;2023-02-02T15:39:57;102208.55;;;10.20;100.00
37878;BME280;23715;53.652;8.516;2023-02-02T15:45:00;102220.02;;;10.31;100.00
37878;BME280;23715;53.652;8.516;2023-02-02T15:50:03;102225.64;;;9.90;100.00
37878;BME280;23715;53.652;8.516;2023-02-02T15:55:17;102232.57;;;10.02;100.00
37878;BME280;23715;53.652;8.516;2023-02-02T16:00:32;102249.23;;;9.85;100.00
37878;BME280;23715;53.652;8.516;2023-02-02T16:05:38;102241.47;;;9.95;100.00
37878;BME280;23715;53.652;8.516;2023-02-02T16:10:38;102244.13;;;9.73;100.00
37878;BME280;23715;53.652;8.516;2023-02-02T16:15:39;102253.23;;;9.78;100.00
37878;BME280;23715;53.652;8.516;2023-02-02T16:20:39;102252.09;;;9.82;100.00
37878;BME280;23715;53.652;8.516;2023-02-02T16:25:48;102255.30;;;9.58;100.00
37878;BME280;23715;53.652;8.516;2023-02-02T16:30:50;102253.62;;;9.26;100.00
37878;BME280;23715;53.652;8.516;2023-02-02T16:35:51;102265.73;;;9.33;100.00
37878;BME280;23715;53.652;8.516;2023-02-02T16:41:09;102269.68;;;9.34;100.00
37878;BME280;23715;53.652;8.516;2023-02-02T16:46:14;102255.50;;;9.63;100.00
37878;BME280;23715;53.652;8.516;2023-02-02T16:56:27;102255.77;;;9.35;100.00
37878;BME280;23715;53.652;8.516;2023-02-02T17:01:33;102265.69;;;9.18;100.00
37878;BME280;23715;53.652;8.516;2023-02-02T17:06:34;102276.23;;;9.22;100.00
37878;BME280;23715;53.652;8.516;2023-02-02T17:11:35;102280.58;;;9.24;100.00
37878;BME280;23715;53.652;8.516;2023-02-02T17:16:35;102292.95;;;9.27;100.00
37878;BME280;23715;53.652;8.516;2023-02-02T17:21:37;102299.22;;;9.34;100.00
37878;BME280;23715;53.652;8.516;2023-02-02T17:26:38;102307.71;;;8.70;100.00
37878;BME280;23715;53.652;8.516;2023-02-02T17:31:38;102306.58;;;8.50;100.00
37878;BME280;23715;53.652;8.516;2023-02-02T17:36:38;102303.53;;;8.73;100.00
37878;BME280;23715;53.652;8.516;2023-02-02T17:41:38;102309.27;;;8.41;100.00
37878;BME280;23715;53.652;8.516;2023-02-02T17:46:38;102316.52;;;8.48;100.00
37878;BME280;23715;53.652;8.516;2023-02-02T17:51:38;102323.23;;;8.39;100.00
37878;BME280;23715;53.652;8.516;2023-02-02T17:56:42;102344.05;;;8.08;100.00
37878;BME280;23715;53.652;8.516;2023-02-02T18:01:43;102343.19;;;7.72;100.00
37878;BME280;23715;53.652;8.516;2023-02-02T18:06:43;102351.43;;;7.68;100.00
37878;BME280;23715;53.652;8.516;2023-02-02T18:11:43;102338.95;;;8.03;100.00
37878;BME280;23715;53.652;8.516;2023-02-02T18:16:45;102339.95;;;8.00;100.00
37878;BME280;23715;53.652;8.516;2023-02-02T18:21:45;102330.34;;;7.79;100.00
37878;BME280;23715;53.652;8.516;2023-02-02T18:26:47;102333.25;;;8.00;100.00
37878;BME280;23715;53.652;8.516;2023-02-02T18:31:47;102331.05;;;8.00;100.00
37878;BME280;23715;53.652;8.516;2023-02-02T18:36:48;102317.44;;;8.05;100.00
37878;BME280;23715;53.652;8.516;2023-02-02T18:57:29;102305.13;;;7.66;100.00
37878;BME280;23715;53.652;8.516;2023-02-02T19:02:31;102289.38;;;7.77;100.00
37878;BME280;23715;53.652;8.516;2023-02-02T19:07:45;102280.16;;;7.65;100.00
37878;BME280;23715;53.652;8.516;2023-02-02T19:13:33;102272.27;;;7.62;100.00
37878;BME280;23715;53.652;8.516;2023-02-02T19:29:30;102261.31;;;7.49;100.00
37878;BME280;23715;53.652;8.516;2023-02-02T19:34:59;102244.39;;;7.49;100.00
37878;BME280;23715;53.652;8.516;2023-02-02T19:40:19;102240.48;;;7.65;100.00
37878;BME280;23715;53.652;8.516;2023-02-02T19:45:33;102229.28;;;7.56;100.00
37878;BME280;23715;53.652;8.516;2023-02-02T19:50:46;102245.34;;;7.39;100.00
37878;BME280;23715;53.652;8.516;2023-02-02T19:55:51;102249.42;;;7.37;100.00
37878;BME280;23715;53.652;8.516;2023-02-02T20:06:25;102253.52;;;7.27;100.00
37878;BME280;23715;53.652;8.516;2023-02-02T20:16:39;102251.35;;;7.16;100.00
37878;BME280;23715;53.652;8.516;2023-02-02T20:21:51;102252.55;;;7.28;100.00
37878;BME280;23715;53.652;8.516;2023-02-02T20:26:58;102250.20;;;7.39;100.00
37878;BME280;23715;53.652;8.516;2023-02-02T20:32:37;102251.55;;;7.31;100.00
37878;BME280;23715;53.652;8.516;2023-02-02T20:37:29;102251.14;;;7.30;100.00
37878;BME280;23715;53.652;8.516;2023-02-02T20:42:43;102237.12;;;7.24;100.00
37878;BME280;23715;53.652;8.516;2023-02-02T20:48:10;102242.33;;;7.28;100.00
37878;BME280;23715;53.652;8.516;2023-02-02T21:20:57;102241.00;;;7.97;100.00
37878;BME280;23715;53.652;8.516;2023-02-02T21:42:29;102211.64;;;8.20;100.00
37878;BME280;23715;53.652;8.516;2023-02-02T21:52:38;102207.83;;;8.33;100.00
37878;BME280;23715;53.652;8.516;2023-02-02T22:03:32;102203.25;;;8.60;100.00
37878;BME280;23715;53.652;8.516;2023-02-02T23:02:51;102241.14;;;8.54;100.00
37878;BME280;23715;53.652;8.516;2023-02-02T23:08:35;102232.70;;;8.53;100.00
37878;BME280;23715;53.652;8.516;2023-02-02T23:13:37;102245.03;;;8.80;100.00
37878;BME280;23715;53.652;8.516;2023-02-02T23:56:53;102235.61;;;8.06;100.00
